Time;durP1;ratioP1;P1;durP2;ratioP2;P2;SDS_P1;SDS_P2;PMS_P1;PMS_P2;Temp;Humidity;BMP_temperature;BMP_pressure;BME280_temperature;BME280_humidity;BME280_pressure;Samples;Min_cycle;Max_cycle;Signal;HPM_P1;HPM_P2
2023/05/12 00:02:15;;;;;;;24.20;16.98;;;;;;;11.95;100.00;101581.22;5051770;28;20041;-75
2023/05/12 00:04:40;;;;;;;23.17;15.70;;;;;;;11.95;100.00;101585.59;5052797;28;20067;-75
2023/05/12 00:07:06;;;;;;;21.70;16.08;;;;;;;11.93;100.00;101585.63;5051626;28;20021;-75
2023/05/12 00:09:31;;;;;;;21.67;15.13;;;;;;;11.88;100.00;101579.59;5051486;28;20476;-75
2023/05/12 00:11:57;;;;;;;19.33;13.32;;;;;;;11.73;100.00;101571.97;5051453;28;20115;-75
2023/05/12 00:14:22;;;;;;;19.75;11.55;;;;;;;11.72;100.00;101588.56;5049107;28;20041;-74
2023/05/12 00:16:50;;;;;;;14.85;10.20;;;;;;;11.57;100.00;101575.72;5048745;28;20477;-75
2023/05/12 00:19:17;;;;;;;14.27;10.63;;;;;;;11.59;100.00;101581.81;5051540;28;20044;-75
2023/05/12 00:21:42;;;;;;;16.60;10.77;;;;;;;11.51;100.00;101579.31;5046753;28;20032;-74
2023/05/12 00:24:07;;;;;;;15.23;9.98;;;;;;;11.48;100.00;101577.63;5046077;28;20029;-75
2023/05/12 00:26:33;;;;;;;11.75;8.95;;;;;;;11.44;100.00;101578.56;5042886;28;20037;-75
2023/05/12 00:28:58;;;;;;;14.80;9.55;;;;;;;11.46;100.00;101574.16;5051162;28;20033;-75
2023/05/12 00:31:23;;;;;;;16.20;10.30;;;;;;;11.41;100.00;101572.50;5050594;28;20519;-75
2023/05/12 00:33:49;;;;;;;13.15;9.57;;;;;;;11.47;100.00;101575.88;5051273;28;20032;-75
2023/05/12 00:36:14;;;;;;;15.27;10.60;;;;;;;11.51;100.00;101576.72;5050930;28;20104;-76
2023/05/12 00:38:40;;;;;;;14.73;10.50;;;;;;;11.48;100.00;101567.16;5052039;28;20025;-76
2023/05/12 00:41:05;;;;;;;17.60;11.02;;;;;;;11.49;100.00;101568.88;5050927;28;20047;-76
2023/05/12 00:43:32;;;;;;;15.27;10.57;;;;;;;11.52;100.00;101570.59;5050194;28;20098;-76
2023/05/12 00:45:59;;;;;;;16.58;11.40;;;;;;;11.52;100.00;101572.34;5045459;28;20033;-76
2023/05/12 00:48:24;;;;;;;15.43;11.32;;;;;;;11.51;100.00;101568.88;5048185;28;20427;-76
2023/05/12 00:50:50;;;;;;;19.25;11.65;;;;;;;11.47;100.00;101568.03;5045948;28;20468;-75
2023/05/12 00:53:16;;;;;;;17.25;12.25;;;;;;;11.41;100.00;101567.28;5048311;28;20072;-76
2023/05/12 00:55:41;;;;;;;17.15;11.80;;;;;;;11.28;100.00;101574.44;5054437;28;20033;-75
2023/05/12 00:58:06;;;;;;;17.60;11.57;;;;;;;11.28;100.00;101564.00;5051031;28;20028;-76
2023/05/12 01:00:32;;;;;;;17.08;11.82;;;;;;;11.25;100.00;101564.06;5055304;28;20027;-76
2023/05/12 01:02:57;;;;;;;19.25;12.20;;;;;;;11.27;100.00;101564.88;5053525;28;20078;-76
2023/05/12 01:05:25;;;;;;;16.98;11.48;;;;;;;11.25;100.00;101564.06;5054148;28;20380;-76
2023/05/12 01:07:51;;;;;;;19.35;12.05;;;;;;;11.21;100.00;101565.81;5053952;28;20167;-76
2023/05/12 01:10:18;;;;;;;16.13;11.93;;;;;;;11.10;100.00;101564.25;5054591;28;20520;-76
2023/05/12 01:12:43;;;;;;;15.82;11.68;;;;;;;11.02;100.00;101560.03;5054957;28;20025;-76
2023/05/12 01:15:09;;;;;;;15.27;11.68;;;;;;;10.99;100.00;101552.22;5056171;28;20404;-76
2023/05/12 01:17:36;;;;;;;14.10;10.88;;;;;;;10.97;100.00;101559.22;5052343;28;20056;-76
2023/05/12 01:20:04;;;;;;;18.52;11.80;;;;;;;10.97;100.00;101551.38;5055813;28;20033;-76
2023/05/12 01:22:32;;;;;;;16.45;11.90;;;;;;;11.00;100.00;101553.94;5056065;28;20435;-76
2023/05/12 01:25:00;;;;;;;17.58;12.25;;;;;;;11.04;100.00;101560.00;5054897;28;20068;-76
2023/05/12 01:27:27;;;;;;;16.17;11.63;;;;;;;11.07;100.00;101546.91;5055950;28;20037;-76
2023/05/12 01:29:56;;;;;;;20.17;12.40;;;;;;;11.08;100.00;101552.97;5055925;28;20372;-76
2023/05/12 01:32:22;;;;;;;17.65;11.88;;;;;;;11.07;100.00;101543.44;5055872;28;20013;-78
2023/05/12 01:34:48;;;;;;;18.00;12.88;;;;;;;11.06;100.00;101544.31;5055532;28;20029;-78
2023/05/12 01:37:14;;;;;;;20.40;13.02;;;;;;;11.08;100.00;101550.38;5054782;28;20098;-77
2023/05/12 01:39:40;;;;;;;20.70;12.50;;;;;;;11.06;100.00;101541.72;5055057;28;20061;-77
2023/05/12 01:42:05;;;;;;;18.33;12.68;;;;;;;11.08;100.00;101545.16;5055587;28;20083;-77
2023/05/12 01:44:31;;;;;;;19.73;12.85;;;;;;;11.04;100.00;101548.69;5055115;28;20051;-78
2023/05/12 01:46:56;;;;;;;20.88;13.00;;;;;;;10.96;100.00;101533.16;5055178;28;20071;-77
2023/05/12 01:49:21;;;;;;;23.52;13.48;;;;;;;11.05;100.00;101539.97;5055370;28;20032;-77
2023/05/12 01:51:47;;;;;;;22.08;13.35;;;;;;;11.02;100.00;101541.75;5054265;28;20029;-78
2023/05/12 01:54:12;;;;;;;17.33;13.02;;;;;;;11.03;100.00;101545.22;5055614;28;20025;-77
2023/05/12 01:56:38;;;;;;;20.20;13.00;;;;;;;10.98;100.00;101533.97;5055008;28;20021;-78
2023/05/12 01:59:03;;;;;;;18.65;13.07;;;;;;;10.97;100.00;101533.13;5041458;28;20116;-77
2023/05/12 02:01:28;;;;;;;18.92;12.48;;;;;;;10.98;100.00;101529.63;5055517;28;20074;-78
2023/05/12 02:03:54;;;;;;;19.20;13.02;;;;;;;10.96;100.00;101539.22;5054757;28;20079;-78
2023/05/12 02:06:21;;;;;;;18.50;12.60;;;;;;;10.91;100.00;101534.94;5053207;28;20028;-78
2023/05/12 02:08:49;;;;;;;17.50;12.45;;;;;;;10.88;100.00;101527.16;5055002;28;20021;-77
2023/05/12 02:11:14;;;;;;;18.27;12.32;;;;;;;10.89;100.00;101523.66;5054808;28;20030;-78
2023/05/12 02:13:40;;;;;;;17.20;11.32;;;;;;;10.91;100.00;101527.13;5053977;28;20036;-77
2023/05/12 02:16:06;;;;;;;21.02;11.80;;;;;;;10.93;100.00;101527.97;5055167;28;20472;-78
2023/05/12 02:18:32;;;;;;;20.10;12.13;;;;;;;10.93;100.00;101527.97;5053934;28;20104;-77
2023/05/12 02:20:57;;;;;;;19.70;11.27;;;;;;;10.90;100.00;101528.88;5052840;28;20555;-78
2023/05/12 02:23:22;;;;;;;18.25;11.07;;;;;;;10.89;100.00;101521.06;5053037;28;20025;-78
2023/05/12 02:25:48;;;;;;;16.00;10.57;;;;;;;10.83;100.00;101519.41;5052253;28;20043;-78
2023/05/12 02:28:13;;;;;;;14.73;9.88;;;;;;;10.77;100.00;101517.75;5053940;28;20032;-78
2023/05/12 02:30:47;;;;;;;16.30;9.63;;;;;;;10.73;100.00;101518.69;5052604;28;20083;-77
2023/05/12 02:33:13;;;;;;;14.20;8.68;;;;;;;10.75;100.00;101516.88;5052546;28;20095;-77
2023/05/12 02:35:38;;;;;;;14.85;9.18;;;;;;;10.74;100.00;101517.78;5052802;28;20381;-77
2023/05/12 02:38:04;;;;;;;15.15;9.30;;;;;;;10.65;100.00;101506.59;5053292;28;20071;-77
2023/05/12 02:40:29;;;;;;;15.30;9.00;;;;;;;10.69;100.00;101511.78;5052840;28;20060;-78
2023/05/12 02:42:54;;;;;;;14.68;9.18;;;;;;;10.63;100.00;101504.03;5051328;28;20082;-77
2023/05/12 02:45:20;;;;;;;13.07;8.18;;;;;;;10.69;100.00;101503.97;5053324;28;20029;-78
2023/05/12 02:47:45;;;;;;;14.27;8.55;;;;;;;10.72;100.00;101503.03;5050150;28;20028;-77
2023/05/12 02:50:10;;;;;;;14.52;9.18;;;;;;;10.73;100.00;101502.16;5053318;28;20056;-77
2023/05/12 02:52:35;;;;;;;14.23;8.35;;;;;;;10.76;100.00;101502.13;5053223;28;20028;-77
2023/05/12 02:55:01;;;;;;;15.90;8.40;;;;;;;10.79;100.00;101499.50;5052293;28;20162;-77
2023/05/12 02:57:31;;;;;;;14.10;8.77;;;;;;;10.74;100.00;101507.34;5052354;28;20055;-78
2023/05/12 02:59:57;;;;;;;14.93;8.40;;;;;;;10.76;100.00;101499.53;5054144;28;20032;-77
2023/05/12 03:02:22;;;;;;;11.60;6.85;;;;;;;10.68;100.00;101480.50;5051615;28;20056;-78
2023/05/12 03:04:47;;;;;;;13.00;7.22;;;;;;;10.68;100.00;101490.94;5048190;28;20037;-77
2023/05/12 03:07:13;;;;;;;11.80;7.13;;;;;;;10.69;100.00;101490.91;5052758;28;20024;-77
2023/05/12 03:09:38;;;;;;;11.10;6.68;;;;;;;10.64;100.00;101489.25;5051964;28;20037;-77
2023/05/12 03:12:03;;;;;;;8.45;5.65;;;;;;;10.60;100.00;101485.81;5052072;28;20104;-76
2023/05/12 03:14:29;;;;;;;7.97;5.57;;;;;;;10.58;100.00;101484.13;5053206;28;20040;-76
2023/05/12 03:16:54;;;;;;;9.25;5.60;;;;;;;10.58;100.00;101478.91;5050699;28;20091;-76
2023/05/12 03:19:19;;;;;;;10.13;5.93;;;;;;;10.49;100.00;101464.22;5053125;28;20020;-76
2023/05/12 03:21:45;;;;;;;14.55;5.88;;;;;;;10.57;100.00;101479.78;5051339;28;20495;-77
2023/05/12 03:24:10;;;;;;;12.30;5.63;;;;;;;10.59;100.00;101470.19;5051742;28;20029;-77
2023/05/12 03:26:35;;;;;;;10.95;5.28;;;;;;;10.62;100.00;101470.16;5051550;28;20385;-77
2023/05/12 03:29:01;;;;;;;9.60;4.90;;;;;;;10.68;100.00;101467.47;5052826;28;20036;-77
2023/05/12 03:31:26;;;;;;;7.85;4.85;;;;;;;10.52;100.00;101446.78;5051675;28;20048;-78
2023/05/12 03:33:51;;;;;;;10.40;4.85;;;;;;;10.61;100.00;101455.41;5051845;28;20392;-77
2023/05/12 03:36:17;;;;;;;10.32;5.30;;;;;;;10.56;100.00;101460.66;5051399;28;20025;-77
2023/05/12 03:38:42;;;;;;;9.73;5.43;;;;;;;10.57;100.00;101464.16;5049643;28;20036;-77
2023/05/12 03:41:07;;;;;;;9.68;5.75;;;;;;;10.54;100.00;101460.69;5050872;28;20126;-77
2023/05/12 03:43:33;;;;;;;12.30;6.15;;;;;;;10.57;100.00;101461.53;5049767;28;20021;-76
2023/05/12 03:45:59;;;;;;;11.50;7.13;;;;;;;10.55;100.00;101459.78;5052824;28;20115;-77
2023/05/12 03:48:24;;;;;;;14.70;7.30;;;;;;;10.52;100.00;101462.44;5053092;28;20029;-76
2023/05/12 03:50:50;;;;;;;14.35;7.47;;;;;;;10.51;100.00;101458.13;5052150;28;20106;-76
2023/05/12 03:53:15;;;;;;;13.95;8.25;;;;;;;10.52;100.00;101454.63;5053377;28;20117;-76
2023/05/12 03:55:40;;;;;;;17.80;9.27;;;;;;;10.51;100.00;101455.50;5052649;28;20025;-76
2023/05/12 03:58:06;;;;;;;17.73;8.75;;;;;;;10.48;100.00;101458.16;5052483;28;20103;-76
2023/05/12 04:00:32;;;;;;;20.45;9.40;;;;;;;10.49;100.00;101452.06;5053097;28;20377;-76
2023/05/12 04:02:57;;;;;;;19.77;10.35;;;;;;;10.52;100.00;101453.75;5050245;28;20492;-76
2023/05/12 04:05:23;;;;;;;17.45;9.32;;;;;;;10.53;100.00;101452.91;5051094;28;20025;-76
2023/05/12 04:07:48;;;;;;;18.58;9.90;;;;;;;10.47;100.00;101446.00;5051473;28;20064;-76
2023/05/12 04:10:13;;;;;;;19.67;11.43;;;;;;;10.48;100.00;101450.34;5049513;28;20041;-76
2023/05/12 04:12:38;;;;;;;23.90;10.90;;;;;;;10.45;100.00;101442.56;5050316;28;20033;-76
2023/05/12 04:15:04;;;;;;;25.30;11.15;;;;;;;10.54;100.00;101455.47;5052657;28;20035;-76
2023/05/12 04:17:30;;;;;;;27.63;11.35;;;;;;;10.51;100.00;101450.28;5051657;28;20411;-76
2023/05/12 04:19:55;;;;;;;25.02;11.68;;;;;;;10.51;100.00;101445.09;5051895;28;20021;-76
2023/05/12 04:22:20;;;;;;;24.67;11.02;;;;;;;10.51;100.00;101439.00;5052886;28;20036;-75
2023/05/12 04:24:49;;;;;;;28.55;12.25;;;;;;;10.53;100.00;101445.94;5052107;28;20533;-75
2023/05/12 04:27:14;;;;;;;31.80;13.18;;;;;;;10.57;100.00;101438.06;5051741;28;20037;-76
2023/05/12 04:29:39;;;;;;;27.83;12.85;;;;;;;10.55;100.00;101445.91;5051417;28;20028;-75
2023/05/12 04:32:05;;;;;;;30.30;14.10;;;;;;;10.58;100.00;101435.44;5052695;28;20059;-76
2023/05/12 04:34:30;;;;;;;35.38;13.63;;;;;;;10.56;100.00;101437.19;5049984;28;20526;-76
2023/05/12 04:36:55;;;;;;;36.28;14.07;;;;;;;10.59;100.00;101433.69;5050795;28;20075;-75
2023/05/12 04:39:21;;;;;;;34.35;14.23;;;;;;;10.60;100.00;101440.66;5051831;28;20055;-76
2023/05/12 04:41:46;;;;;;;35.88;14.95;;;;;;;10.61;100.00;101439.75;5051130;28;20384;-76
2023/05/12 04:44:11;;;;;;;37.25;14.52;;;;;;;10.62;100.00;101449.28;5051452;28;20021;-76
2023/05/12 04:46:37;;;;;;;39.90;15.63;;;;;;;10.62;100.00;101444.06;5051038;28;20040;-77
2023/05/12 04:49:02;;;;;;;41.03;15.02;;;;;;;10.54;100.00;101437.22;5040720;28;20395;-77
2023/05/12 04:51:27;;;;;;;40.00;15.52;;;;;;;10.60;100.00;101446.72;5050211;28;20051;-77
2023/05/12 04:53:52;;;;;;;41.05;16.60;;;;;;;10.62;100.00;101447.53;5050917;28;20024;-77
2023/05/12 04:56:18;;;;;;;48.95;17.27;;;;;;;10.64;100.00;101452.75;5052299;28;20025;-77
2023/05/12 04:58:43;;;;;;;40.83;16.33;;;;;;;10.67;100.00;101437.06;5049250;28;20568;-77
2023/05/12 05:01:08;;;;;;;48.60;17.48;;;;;;;10.68;100.00;101446.59;5051758;28;20051;-77
2023/05/12 05:03:34;;;;;;;50.65;17.92;;;;;;;10.72;100.00;101453.47;5045408;28;20037;-77
2023/05/12 05:05:59;;;;;;;49.50;17.77;;;;;;;10.72;100.00;101453.47;5052159;28;20091;-77
2023/05/12 05:08:24;;;;;;;53.20;19.08;;;;;;;10.75;100.00;101461.25;5051642;28;20100;-77
2023/05/12 05:10:49;;;;;;;59.20;19.88;;;;;;;10.74;100.00;101459.56;5051916;28;20033;-77
2023/05/12 05:13:15;;;;;;;57.88;20.10;;;;;;;10.77;100.00;101459.50;5052354;28;20017;-77
2023/05/12 05:15:48;;;;;;;62.20;21.67;;;;;;;10.79;100.00;101455.16;5050949;28;20469;-77
2023/05/12 05:18:14;;;;;;;62.90;23.30;;;;;;;10.79;100.00;101462.97;5039268;28;20059;-77
2023/05/12 05:20:39;;;;;;;62.95;22.58;;;;;;;10.82;100.00;101457.69;5051639;28;20057;-77
2023/05/12 05:23:05;;;;;;;70.60;24.73;;;;;;;10.84;100.00;101462.88;5051177;28;20025;-77
2023/05/12 05:25:31;;;;;;;69.18;23.65;;;;;;;10.86;100.00;101467.22;5051893;28;20395;-77
2023/05/12 05:27:57;;;;;;;66.90;24.83;;;;;;;10.83;100.00;101459.44;5051831;28;20051;-76
2023/05/12 05:30:22;;;;;;;73.25;25.50;;;;;;;10.88;100.00;101468.03;5051188;28;20028;-76
2023/05/12 05:32:47;;;;;;;72.55;26.48;;;;;;;10.82;100.00;101457.69;5051719;28;20074;-76
2023/05/12 05:35:12;;;;;;;72.35;26.75;;;;;;;10.92;100.00;101480.16;5052204;28;20088;-76
2023/05/12 05:37:38;;;;;;;79.75;28.42;;;;;;;10.93;100.00;101476.66;5050572;28;20396;-76
2023/05/12 05:40:04;;;;;;;84.65;28.15;;;;;;;10.97;100.00;101480.94;5053102;28;20396;-76
2023/05/12 05:42:29;;;;;;;81.63;28.08;;;;;;;10.97;100.00;101473.13;5055643;28;20029;-76
2023/05/12 05:44:55;;;;;;;82.57;30.40;;;;;;;11.02;100.00;101484.34;5054164;28;20021;-76
2023/05/12 05:47:20;;;;;;;86.10;32.15;;;;;;;11.04;100.00;101478.25;5055520;28;20031;-76
2023/05/12 05:49:45;;;;;;;83.55;31.50;;;;;;;11.04;100.00;101483.47;5054966;28;20022;-75
2023/05/12 05:52:11;;;;;;;83.22;30.75;;;;;;;11.03;100.00;101477.38;5054906;28;20107;-76
2023/05/12 05:54:36;;;;;;;84.07;29.88;;;;;;;11.11;100.00;101482.47;5055351;28;20067;-76
2023/05/12 05:57:01;;;;;;;79.78;31.00;;;;;;;11.16;100.00;101496.31;5054265;28;20029;-76
2023/05/12 05:59:27;;;;;;;85.07;32.10;;;;;;;11.19;100.00;101491.06;5055260;28;20029;-76
2023/05/12 06:01:52;;;;;;;94.40;32.85;;;;;;;11.23;100.00;101495.34;5054177;28;20391;-76
2023/05/12 06:04:17;;;;;;;90.00;32.80;;;;;;;11.24;100.00;101497.91;5053509;28;20123;-76
2023/05/12 06:06:43;;;;;;;87.45;32.92;;;;;;;11.27;100.00;101502.22;5053723;28;20044;-76
2023/05/12 06:09:11;;;;;;;88.88;31.55;;;;;;;11.26;100.00;101505.72;5053819;28;20106;-75
2023/05/12 06:11:36;;;;;;;88.47;34.90;;;;;;;11.30;100.00;101503.94;5051750;28;20537;-76
2023/05/12 06:14:01;;;;;;;93.53;35.72;;;;;;;11.35;100.00;101515.19;5054598;28;20103;-76
2023/05/12 06:16:27;;;;;;;87.95;33.80;;;;;;;11.39;100.00;101522.06;5054899;28;20029;-76
2023/05/12 06:18:53;;;;;;;89.57;33.10;;;;;;;11.37;100.00;101518.59;5053974;28;20021;-76
2023/05/12 06:21:18;;;;;;;86.43;32.72;;;;;;;11.44;100.00;101525.44;5054912;28;20017;-76
2023/05/12 06:23:44;;;;;;;82.78;31.77;;;;;;;11.43;100.00;101527.19;5054604;28;20047;-75
2023/05/12 06:26:10;;;;;;;87.00;34.13;;;;;;;11.47;100.00;101534.09;5054050;28;20064;-75
2023/05/12 06:28:36;;;;;;;85.38;32.97;;;;;;;11.51;100.00;101541.88;5054868;28;20025;-75
2023/05/12 06:31:01;;;;;;;84.22;34.25;;;;;;;11.54;100.00;101528.78;5054530;28;20017;-75
2023/05/12 06:33:29;;;;;;;88.63;35.45;;;;;;;11.63;100.00;101541.69;5040287;28;20033;-75
2023/05/12 06:35:54;;;;;;;90.18;35.20;;;;;;;11.73;100.00;101532.81;5054477;28;20079;-75
2023/05/12 06:38:19;;;;;;;89.15;35.55;;;;;;;11.79;100.00;101545.75;5054594;28;20496;-76
2023/05/12 06:40:45;;;;;;;87.25;35.42;;;;;;;11.86;100.00;101541.31;5053427;28;20032;-76
2023/05/12 06:43:10;;;;;;;89.30;36.90;;;;;;;12.06;100.00;101546.19;5054347;28;20036;-76
2023/05/12 06:45:35;;;;;;;86.00;36.25;;;;;;;12.22;100.00;101542.41;5054384;28;20534;-76
2023/05/12 06:48:02;;;;;;;87.40;36.35;;;;;;;12.36;100.00;101552.59;5053245;28;20417;-76
2023/05/12 06:50:27;;;;;;;76.47;35.75;;;;;;;12.46;100.00;101550.66;5040362;28;20358;-76
2023/05/12 06:52:52;;;;;;;70.47;33.85;;;;;;;12.55;100.00;101550.47;5053608;28;20036;-76
2023/05/12 06:55:19;;;;;;;66.35;33.03;;;;;;;12.57;100.00;101552.16;5051420;28;20029;-75
2023/05/12 06:57:44;;;;;;;62.00;31.58;;;;;;;12.59;100.00;101562.63;5045451;28;20112;-75
2023/05/12 07:00:10;;;;;;;59.40;30.77;;;;;;;12.72;100.00;101558.84;5054410;28;20124;-73
2023/05/12 07:02:35;;;;;;;54.08;30.45;;;;;;;12.82;100.00;101563.00;5053384;28;20021;-75
2023/05/12 07:05:00;;;;;;;47.65;29.90;;;;;;;12.84;100.00;101562.94;5052902;28;20061;-75
2023/05/12 07:07:28;;;;;;;45.38;28.42;;;;;;;12.92;100.00;101558.44;5052175;28;20060;-75
2023/05/12 07:09:54;;;;;;;43.03;28.70;;;;;;;13.05;100.00;101567.72;5053721;28;20025;-75
2023/05/12 07:12:19;;;;;;;42.97;28.10;;;;;;;13.10;100.00;101565.00;5053779;28;20027;-75
2023/05/12 07:14:44;;;;;;;39.90;26.65;;;;;;;13.11;100.00;101571.94;5053138;28;20420;-75
2023/05/12 07:17:09;;;;;;;38.13;25.90;;;;;;;13.06;100.00;101574.69;5053234;28;20109;-74
2023/05/12 07:19:35;;;;;;;35.95;25.50;;;;;;;13.03;100.00;101577.34;5052973;28;20029;-75
2023/05/12 07:22:01;;;;;;;33.80;24.98;;;;;;;13.05;100.00;101579.97;5052654;28;20165;-75
2023/05/12 07:24:26;;;;;;;35.10;25.67;;;;;;;13.03;100.00;101571.25;5053600;28;20021;-74
2023/05/12 07:26:52;;;;;;;29.48;22.92;;;;;;;13.03;100.00;101579.13;5053279;28;20029;-75
2023/05/12 07:29:18;;;;;;;27.85;21.48;;;;;;;13.04;100.00;101580.84;5051185;28;20155;-75
2023/05/12 07:31:43;;;;;;;30.98;21.17;;;;;;;13.05;100.00;101586.06;5052848;28;20078;-75
2023/05/12 07:34:08;;;;;;;29.75;21.50;;;;;;;13.13;100.00;101575.41;5051669;28;20565;-75
2023/05/12 07:36:34;;;;;;;24.20;20.25;;;;;;;13.12;100.00;101584.16;5052543;28;20124;-75
2023/05/12 07:38:59;;;;;;;20.17;18.00;;;;;;;13.02;100.00;101582.66;5052423;28;20074;-76
2023/05/12 07:41:25;;;;;;;23.02;18.40;;;;;;;13.12;100.00;101585.00;5052683;28;20025;-75
2023/05/12 07:43:50;;;;;;;24.30;18.75;;;;;;;13.21;100.00;101572.59;5052240;28;20473;-75
2023/05/12 07:46:15;;;;;;;20.30;17.60;;;;;;;13.44;100.00;101585.19;5052473;28;20472;-75
2023/05/12 07:48:41;;;;;;;22.92;18.92;;;;;;;13.64;100.00;101584.75;5052962;28;20388;-75
2023/05/12 07:51:07;;;;;;;19.58;17.40;;;;;;;13.77;100.00;101591.41;5051377;28;20017;-74
2023/05/12 07:53:32;;;;;;;22.60;17.08;;;;;;;13.92;100.00;101595.38;5051034;28;20041;-75
2023/05/12 07:55:57;;;;;;;17.00;15.20;;;;;;;13.95;100.00;101592.69;5046804;28;20108;-73
2023/05/12 07:58:23;;;;;;;19.15;12.15;;;;;;;13.86;100.00;101600.78;5052421;28;20021;-74
2023/05/12 08:00:48;;;;;;;14.50;12.02;;;;;;;13.85;100.00;101602.53;5050829;28;20017;-73
2023/05/12 08:03:15;;;;;;;14.10;12.30;;;;;;;13.66;100.00;101601.28;5049021;28;20040;-73
2023/05/12 08:05:40;;;;;;;13.77;12.32;;;;;;;13.62;100.00;101604.88;5046838;28;20029;-73
2023/05/12 08:08:05;;;;;;;14.43;12.80;;;;;;;13.73;100.00;101603.72;5049319;28;20043;-73
2023/05/12 08:10:34;;;;;;;16.10;13.40;;;;;;;13.71;100.00;101609.91;5052261;28;20027;-73
2023/05/12 08:12:59;;;;;;;14.07;12.68;;;;;;;13.59;100.00;101606.66;5052173;28;20074;-73
2023/05/12 08:15:24;;;;;;;15.02;12.60;;;;;;;13.51;100.00;101599.91;5052984;28;20029;-73
2023/05/12 08:17:50;;;;;;;13.75;12.35;;;;;;;13.45;100.00;101605.28;5049751;28;20351;-77
2023/05/12 08:20:15;;;;;;;13.38;12.07;;;;;;;13.52;100.00;101617.31;5050596;28;20060;-73
2023/05/12 08:22:40;;;;;;;14.95;13.38;;;;;;;13.67;100.00;101616.09;5051711;28;20039;-74
2023/05/12 08:25:06;;;;;;;15.20;13.25;;;;;;;13.77;100.00;101607.13;5051359;28;20092;-73
2023/05/12 08:27:32;;;;;;;16.75;14.85;;;;;;;13.77;100.00;101610.59;5051643;28;20037;-73
2023/05/12 08:29:57;;;;;;;17.10;12.80;;;;;;;13.95;100.00;101617.13;5052086;28;20021;-73
2023/05/12 08:32:23;;;;;;;15.38;12.90;;;;;;;14.25;100.00;101619.88;5052034;28;20029;-73
2023/05/12 08:34:48;;;;;;;13.82;12.52;;;;;;;14.53;100.00;101622.66;5052342;28;20027;-74
2023/05/12 08:37:13;;;;;;;16.25;12.48;;;;;;;14.83;100.00;101625.31;5051563;28;20523;-73
2023/05/12 08:39:39;;;;;;;13.02;11.30;;;;;;;15.05;100.00;101625.56;5051474;28;20025;-73
2023/05/12 08:42:23;;;;;;;13.52;11.80;;;;;;;15.07;100.00;101626.38;5051482;28;20460;-73
2023/05/12 08:44:48;;;;;;;11.98;10.20;;;;;;;15.11;100.00;101621.00;5052207;28;20114;-73
2023/05/12 08:47:19;;;;;;;10.15;9.15;;;;;;;15.02;100.00;101620.41;5051325;28;20032;-73
2023/05/12 08:49:48;;;;;;;10.23;9.30;;;;;;;15.01;100.00;101630.06;5051054;28;20080;-74
2023/05/12 08:52:17;;;;;;;10.13;8.63;;;;;;;15.05;100.00;101625.56;5052624;28;20036;-73
2023/05/12 08:54:43;;;;;;;11.57;8.60;;;;;;;15.26;100.00;101639.81;5051522;28;20021;-73
2023/05/12 08:57:09;;;;;;;9.23;8.43;;;;;;;15.46;100.00;101640.06;5052045;28;20029;-73
2023/05/12 08:59:36;;;;;;;10.07;9.02;;;;;;;15.89;100.00;101638.72;5050923;28;20044;-73
2023/05/12 09:02:04;;;;;;;6.78;5.97;;;;;;;16.20;100.00;101635.06;5049147;28;20563;-73
2023/05/12 09:04:29;;;;;;;6.78;6.00;;;;;;;16.25;100.00;101638.38;5051971;28;20465;-73
2023/05/12 09:06:57;;;;;;;6.20;5.60;;;;;;;16.08;100.00;101641.59;5050924;28;20047;-73
2023/05/12 09:09:24;;;;;;;13.68;8.52;;;;;;;16.11;100.00;101644.13;5051082;28;20055;-73
2023/05/12 09:11:55;;;;;;;10.15;7.40;;;;;;;16.03;100.00;101633.88;5050831;28;20049;-73
2023/05/12 09:14:27;;;;;;;8.85;6.68;;;;;;;16.01;100.00;101645.34;5046309;28;20029;-73
2023/05/12 09:17:01;;;;;;;11.32;6.82;;;;;;;16.01;100.00;101640.94;5055320;28;20017;-73
2023/05/12 09:19:27;;;;;;;6.47;5.88;;;;;;;16.08;100.00;101645.06;5055887;28;20035;-72
2023/05/12 09:21:53;;;;;;;6.80;6.00;;;;;;;16.14;100.00;101647.50;5054895;28;20025;-73
2023/05/12 09:24:18;;;;;;;7.07;5.28;;;;;;;16.18;100.00;101642.13;5054321;28;20061;-73
2023/05/12 09:26:54;;;;;;;5.75;4.63;;;;;;;16.07;100.00;101651.25;5054841;28;20043;-73
2023/05/12 09:29:22;;;;;;;6.07;4.95;;;;;;;15.84;100.00;101648.53;5049295;28;20033;-73
2023/05/12 09:31:58;;;;;;;6.95;4.45;;;;;;;15.91;100.00;101657.94;5053401;28;20024;-73
2023/05/12 09:34:39;;;;;;;5.72;4.75;;;;;;;16.19;100.00;101650.00;5055858;28;20017;-73
2023/05/12 09:37:06;;;;;;;36.65;15.85;;;;;;;16.37;100.00;101653.75;5043176;28;20045;-73
2023/05/12 09:39:32;;;;;;;6.65;4.72;;;;;;;16.38;100.00;101650.19;5054593;28;20028;-73
2023/05/12 09:41:58;;;;;;;6.63;5.20;;;;;;;16.43;100.00;101645.66;5054626;28;20035;-73
2023/05/12 09:44:56;;;;;;;14.60;6.50;;;;;;;16.67;100.00;101637.78;5055101;28;20380;-73
2023/05/12 09:47:26;;;;;;;5.72;4.80;;;;;;;16.91;100.00;101649.25;5052688;28;20052;-73
2023/05/12 09:49:51;;;;;;;5.53;4.15;;;;;;;16.99;100.00;101658.56;5054290;28;20028;-73
2023/05/12 09:52:20;;;;;;;4.82;4.00;;;;;;;17.05;100.00;101660.13;5055752;28;20013;-73
2023/05/12 09:54:46;;;;;;;4.93;4.43;;;;;;;17.08;100.00;101666.13;5054958;28;20480;-73
2023/05/12 09:57:14;;;;;;;5.10;3.75;;;;;;;17.21;100.00;101655.13;5053410;28;20106;-73
2023/05/12 09:59:42;;;;;;;4.78;4.18;;;;;;;17.28;100.00;101664.50;5054746;28;20029;-73
2023/05/12 10:02:08;;;;;;;4.10;3.80;;;;;;;17.16;100.00;101649.16;5055208;28;20502;-73
2023/05/12 10:04:40;;;;;;;4.55;4.15;;;;;;;17.16;100.00;101659.69;5054520;28;20033;-73
2023/05/12 10:07:11;;;;;;;6.60;4.93;;;;;;;17.47;100.00;101664.66;5051955;28;20061;-72
2023/05/12 10:09:40;;;;;;;14.45;5.95;;;;;;;17.57;100.00;101659.88;5051853;28;20557;-73
2023/05/12 10:12:07;;;;;;;6.32;4.18;;;;;;;17.80;100.00;101665.13;5054449;28;20357;-72
2023/05/12 10:14:33;;;;;;;4.75;4.15;;;;;;;18.11;98.53;101661.22;5053395;28;20488;-73
2023/05/12 10:16:58;;;;;;;4.55;4.15;;;;;;;18.43;100.00;101670.41;5054544;28;20476;-73
2023/05/12 10:19:25;;;;;;;3.20;2.90;;;;;;;18.22;92.48;101666.91;5054026;28;20309;-73
2023/05/12 10:21:50;;;;;;;6.10;3.22;;;;;;;18.06;94.18;101663.22;5054898;28;20025;-73
2023/05/12 10:24:16;;;;;;;4.65;3.83;;;;;;;17.89;92.51;101671.81;5051337;28;20028;-71
2023/05/12 10:26:42;;;;;;;4.60;4.20;;;;;;;17.69;97.40;101669.94;5052606;28;20147;-72
2023/05/12 10:29:08;;;;;;;7.25;4.75;;;;;;;17.77;100.00;101663.47;5055011;28;20083;-72
2023/05/12 10:31:35;;;;;;;5.28;4.53;;;;;;;17.57;97.53;101668.66;5052947;28;20083;-73
2023/05/12 10:34:02;;;;;;;6.68;3.88;;;;;;;17.49;100.00;101670.72;5054683;28;20033;-73
2023/05/12 10:36:27;;;;;;;5.53;4.80;;;;;;;17.50;100.00;101667.19;5054559;28;20033;-73
2023/05/12 10:38:54;;;;;;;5.07;3.90;;;;;;;17.50;93.81;101662.75;5052990;28;20441;-72
2023/05/12 10:41:32;;;;;;;4.53;3.65;;;;;;;17.48;95.45;101663.75;5053205;28;20031;-72
2023/05/12 10:43:58;;;;;;;4.13;3.60;;;;;;;17.74;98.61;101670.63;5050921;28;20112;-73
2023/05/12 10:46:25;;;;;;;4.47;3.63;;;;;;;17.87;93.36;101645.50;5051651;28;20116;-73
2023/05/12 10:48:57;;;;;;;4.97;3.50;;;;;;;18.28;91.35;101669.31;5050842;28;20041;-73
2023/05/12 10:51:30;;;;;;;6.70;3.80;;;;;;;18.38;89.86;101669.75;5050902;28;20381;-73
2023/05/12 10:53:59;;;;;;;4.15;3.10;;;;;;;18.36;86.35;101671.59;5053488;28;20025;-73
2023/05/12 10:56:30;;;;;;;4.95;3.03;;;;;;;18.34;85.25;101671.66;5053307;28;20384;-73
2023/05/12 10:59:16;;;;;;;3.63;3.13;;;;;;;18.22;85.83;101672.19;5052835;28;20051;-73
2023/05/12 11:01:59;;;;;;;2.95;2.70;;;;;;;18.51;87.80;101670.06;5051486;28;20040;-73
2023/05/12 11:04:35;;;;;;;2.85;2.40;;;;;;;18.82;77.60;101670.47;5052307;28;20039;-72